createdAt,value
2023-05-07T00:02:55.600Z,10.55542
2023-05-07T00:06:20.671Z,10.605774
2023-05-07T00:09:45.926Z,10.585632
2023-05-07T00:13:11.164Z,10.585632
2023-05-07T00:16:36.378Z,10.625916
2023-05-07T00:20:01.604Z,10.776978
2023-05-07T00:23:26.792Z,10.80719
2023-05-07T00:26:52.033Z,10.787048
2023-05-07T00:30:17.230Z,10.726624
2023-05-07T00:33:42.473Z,10.696411
2023-05-07T00:37:08.001Z,10.484924
2023-05-07T00:40:33.147Z,10.223083
2023-05-07T00:43:58.341Z,10.05188
2023-05-07T00:47:23.560Z,9.941101
2023-05-07T00:50:48.745Z,9.860535
2023-05-07T00:54:13.989Z,9.860535
2023-05-07T00:57:39.243Z,9.860535
2023-05-07T01:01:04.442Z,9.810181
2023-05-07T01:04:29.704Z,9.749756
2023-05-07T01:07:54.850Z,9.689331
2023-05-07T01:11:20.298Z,9.649048
2023-05-07T01:14:45.263Z,9.538269
2023-05-07T01:18:10.529Z,9.508057
2023-05-07T01:21:35.712Z,9.538269
2023-05-07T01:25:00.904Z,9.689331
2023-05-07T01:28:26.166Z,9.900818
2023-05-07T01:31:51.371Z,10.092163
2023-05-07T01:35:16.581Z,10.253296
2023-05-07T01:38:41.786Z,10.343933
2023-05-07T01:42:06.985Z,10.404358
2023-05-07T01:45:32.309Z,10.454712
2023-05-07T01:48:57.404Z,10.545349
2023-05-07T01:52:22.632Z,10.545349
2023-05-07T01:55:47.851Z,10.605774
2023-05-07T01:59:13.067Z,10.585632
2023-05-07T02:02:38.352Z,10.55542
2023-05-07T02:06:03.827Z,10.474854
2023-05-07T02:09:28.988Z,10.323792
2023-05-07T02:12:54.308Z,10.172729
2023-05-07T02:16:19.425Z,9.93103
2023-05-07T02:19:44.616Z,9.790039
2023-05-07T02:23:09.781Z,9.93103
2023-05-07T02:26:34.985Z,9.961243
2023-05-07T02:30:00.208Z,9.961243
2023-05-07T02:33:25.397Z,9.991455
2023-05-07T02:36:50.704Z,10.082092
2023-05-07T02:40:15.860Z,10.092163
2023-05-07T02:43:41.060Z,10.122375
2023-05-07T02:47:06.247Z,10.011597
2023-05-07T02:50:31.438Z,10.041809
2023-05-07T02:53:56.672Z,10.011597
2023-05-07T02:57:21.853Z,10.072021
2023-05-07T03:00:47.070Z,10.082092
2023-05-07T03:04:12.347Z,9.991455
2023-05-07T03:07:37.489Z,9.558411
2023-05-07T03:11:02.732Z,9.477844
2023-05-07T03:14:27.903Z,9.467773
2023-05-07T03:17:53.177Z,9.42749
2023-05-07T03:21:18.337Z,9.256287
2023-05-07T03:24:43.512Z,9.377136
2023-05-07T03:28:08.836Z,9.417419
2023-05-07T03:31:33.987Z,9.397278
2023-05-07T03:34:59.126Z,9.316711
2023-05-07T03:38:24.375Z,9.276428
2023-05-07T03:41:49.567Z,9.165649
2023-05-07T03:45:14.811Z,9.054871
2023-05-07T03:48:39.945Z,9.105225
2023-05-07T03:52:05.133Z,9.125366
2023-05-07T03:55:30.342Z,9.135437
2023-05-07T03:58:55.539Z,9.075012
2023-05-07T04:02:20.860Z,9.125366
2023-05-07T04:05:45.889Z,9.075012
2023-05-07T04:09:11.082Z,9.095154
2023-05-07T04:12:36.306Z,9.125366
2023-05-07T04:16:01.469Z,9.135437
2023-05-07T04:19:26.726Z,9.195862
2023-05-07T04:22:51.826Z,9.145508
2023-05-07T04:26:17.112Z,9.286499
2023-05-07T04:29:42.250Z,9.326782
2023-05-07T04:33:07.476Z,9.477844
2023-05-07T04:36:32.743Z,9.397278
2023-05-07T04:39:57.835Z,9.356995
2023-05-07T04:43:23.013Z,9.286499
2023-05-07T04:46:48.214Z,9.306641
2023-05-07T04:50:13.549Z,9.276428
2023-05-07T04:53:38.792Z,9.306641
2023-05-07T04:57:03.821Z,9.276428
2023-05-07T05:00:28.986Z,9.286499
2023-05-07T05:03:54.232Z,9.256287
2023-05-07T05:07:19.364Z,9.356995
2023-05-07T05:10:44.582Z,9.477844
2023-05-07T05:14:09.729Z,9.608765
2023-05-07T05:17:34.918Z,9.558411
2023-05-07T05:21:00.113Z,9.568481
2023-05-07T05:24:25.262Z,9.659119
2023-05-07T05:27:50.552Z,9.649048
2023-05-07T05:31:15.646Z,9.477844
2023-05-07T05:34:40.788Z,9.497986
2023-05-07T05:38:05.964Z,9.608765
2023-05-07T05:41:31.154Z,9.568481
2023-05-07T05:44:56.482Z,9.397278
2023-05-07T05:48:21.543Z,9.095154
2023-05-07T05:51:46.776Z,9.105225
2023-05-07T05:55:11.994Z,8.984375
2023-05-07T05:58:37.201Z,8.954163
2023-05-07T06:02:02.545Z,9.075012
2023-05-07T06:05:27.617Z,8.944092
2023-05-07T06:08:52.773Z,8.984375
2023-05-07T06:12:17.999Z,8.994446
2023-05-07T06:15:43.178Z,8.92395
2023-05-07T06:19:08.588Z,8.944092
2023-05-07T06:22:33.558Z,9.095154
2023-05-07T06:25:58.742Z,9.276428
2023-05-07T06:29:23.918Z,9.316711
2023-05-07T06:32:49.128Z,9.105225
2023-05-07T06:36:14.278Z,9.165649
2023-05-07T06:39:39.413Z,9.346924
2023-05-07T06:43:04.567Z,9.538269
2023-05-07T06:46:29.751Z,9.67926
2023-05-07T06:49:54.881Z,9.598694
2023-05-07T06:53:20.119Z,9.67926
2023-05-07T06:56:45.187Z,9.790039
2023-05-07T07:00:10.686Z,9.739685
2023-05-07T07:03:35.414Z,9.538269
2023-05-07T07:07:00.551Z,9.387207
2023-05-07T07:10:25.958Z,9.387207
2023-05-07T07:13:50.877Z,9.326782
2023-05-07T07:17:16.715Z,9.387207
2023-05-07T07:20:41.860Z,9.397278
2023-05-07T07:24:06.967Z,9.356995
2023-05-07T07:27:32.247Z,9.417419
2023-05-07T07:30:57.352Z,9.477844
2023-05-07T07:34:22.538Z,9.497986
2023-05-07T07:37:47.727Z,9.649048
2023-05-07T07:41:12.941Z,9.759827
2023-05-07T07:44:38.306Z,9.961243
2023-05-07T07:48:03.335Z,10.082092
2023-05-07T07:51:28.450Z,10.263367
2023-05-07T07:54:53.664Z,10.343933
2023-05-07T07:58:18.956Z,10.273438
2023-05-07T08:01:44.302Z,10.343933
2023-05-07T08:05:09.363Z,10.414429
2023-05-07T08:08:34.594Z,10.4245
2023-05-07T08:11:59.807Z,10.414429
2023-05-07T08:15:25.039Z,10.484924
2023-05-07T08:18:50.286Z,10.545349
2023-05-07T08:22:15.525Z,10.585632
2023-05-07T08:25:40.739Z,10.837402
2023-05-07T08:29:05.909Z,11.018677
2023-05-07T08:32:31.159Z,11.038818
2023-05-07T08:35:56.395Z,10.988464
2023-05-07T08:39:21.482Z,10.968323
2023-05-07T08:42:46.725Z,11.018677
2023-05-07T08:46:11.904Z,11.210022
2023-05-07T08:49:37.010Z,11.351013
2023-05-07T08:53:02.170Z,10.93811
2023-05-07T08:56:27.309Z,11.149597
2023-05-07T08:59:52.469Z,11.320801
2023-05-07T09:03:17.760Z,11.421509
2023-05-07T09:06:42.973Z,11.471863
2023-05-07T09:10:08.196Z,11.653137
2023-05-07T09:13:33.283Z,11.854553
2023-05-07T09:16:58.512Z,12.045898
2023-05-07T09:20:23.763Z,12.116394
2023-05-07T09:23:48.974Z,12.18689
2023-05-07T09:27:14.299Z,12.277527
2023-05-07T09:30:39.509Z,12.227173
2023-05-07T09:34:04.731Z,12.348022
2023-05-07T09:37:29.941Z,12.44873
2023-05-07T09:40:55.253Z,12.539368
2023-05-07T09:44:20.576Z,12.770996
2023-05-07T09:47:45.764Z,12.962341
2023-05-07T09:51:10.999Z,13.334961
2023-05-07T09:54:36.256Z,13.667297
2023-05-07T09:58:01.471Z,13.868713
2023-05-07T10:01:26.974Z,13.838501
2023-05-07T10:04:51.953Z,13.768005
2023-05-07T10:08:17.172Z,13.747864
2023-05-07T10:11:42.465Z,13.838501
2023-05-07T10:15:07.779Z,13.868713
2023-05-07T10:18:33.109Z,13.838501
2023-05-07T10:21:58.246Z,13.94928
2023-05-07T10:25:23.475Z,14.060059
2023-05-07T10:28:48.711Z,14.211121
2023-05-07T10:32:13.912Z,14.211121
2023-05-07T10:35:39.262Z,14.462891
2023-05-07T10:39:04.478Z,14.513245
2023-05-07T10:42:29.770Z,14.432678
2023-05-07T10:45:55.123Z,14.513245
2023-05-07T10:49:20.995Z,14.523315
2023-05-07T10:52:45.554Z,14.644165
2023-05-07T10:56:10.711Z,14.372253
2023-05-07T10:59:35.998Z,14.090271
2023-05-07T11:03:01.382Z,14.039917
2023-05-07T11:06:26.490Z,14.150696
2023-05-07T11:09:51.850Z,14.221191
2023-05-07T11:13:16.959Z,14.422607
2023-05-07T11:16:42.202Z,14.422607
2023-05-07T11:20:07.399Z,14.513245
2023-05-07T11:23:32.640Z,14.513245
2023-05-07T11:26:57.901Z,14.543457
2023-05-07T11:30:23.380Z,14.503174
2023-05-07T11:33:49.432Z,14.523315
2023-05-07T11:37:14.671Z,14.462891
2023-05-07T11:40:39.880Z,14.432678
2023-05-07T11:44:05.150Z,14.120483
2023-05-07T11:47:30.433Z,14.271545
2023-05-07T11:50:55.644Z,14.472961
2023-05-07T11:54:20.836Z,14.432678
2023-05-07T11:57:46.078Z,14.271545
2023-05-07T12:01:11.345Z,14.392395
2023-05-07T12:04:36.546Z,14.462891
2023-05-07T12:08:01.745Z,14.553528
2023-05-07T12:11:27.157Z,14.644165
2023-05-07T12:14:52.180Z,14.70459
2023-05-07T12:18:17.412Z,14.694519
2023-05-07T12:21:42.597Z,14.795227
2023-05-07T12:25:07.970Z,14.775085
2023-05-07T12:28:33.001Z,14.775085
2023-05-07T12:31:58.345Z,14.946289
2023-05-07T12:35:23.462Z,14.976501
2023-05-07T12:38:48.691Z,14.875793
2023-05-07T12:42:13.938Z,14.906006
2023-05-07T12:45:39.246Z,15.006714
2023-05-07T12:49:04.484Z,15.057068
2023-05-07T12:52:29.792Z,15.107422
2023-05-07T12:55:55.050Z,15.097351
2023-05-07T12:59:20.262Z,15.187988
2023-05-07T13:02:45.904Z,15.057068
2023-05-07T13:06:11.126Z,15.016785
2023-05-07T13:09:36.108Z,15.057068
2023-05-07T13:13:01.367Z,15.107422
2023-05-07T13:16:26.596Z,15.187988
2023-05-07T13:19:51.831Z,15.107422
2023-05-07T13:23:17.121Z,15.127563
2023-05-07T13:26:45.787Z,15.20813
2023-05-07T13:30:07.580Z,15.268555
2023-05-07T13:33:32.780Z,15.268555
2023-05-07T13:36:57.996Z,15.248413
2023-05-07T13:40:23.225Z,15.288696
2023-05-07T13:43:48.528Z,15.278625
2023-05-07T13:47:13.757Z,15.228271
2023-05-07T13:50:39.042Z,15.167847
2023-05-07T13:54:04.239Z,15.016785
2023-05-07T13:57:29.463Z,14.916077
2023-05-07T14:00:54.688Z,14.875793
2023-05-07T14:04:19.813Z,14.825439
2023-05-07T14:07:44.971Z,14.775085
2023-05-07T14:11:10.210Z,14.70459
2023-05-07T14:14:35.363Z,14.825439
2023-05-07T14:18:00.539Z,14.754944
2023-05-07T14:21:25.641Z,14.694519
2023-05-07T14:24:59.656Z,14.754944
2023-05-07T14:28:15.968Z,14.795227
2023-05-07T14:31:41.203Z,14.775085
2023-05-07T14:35:06.398Z,14.694519
2023-05-07T14:38:31.493Z,14.613953
2023-05-07T14:41:56.698Z,14.613953
2023-05-07T14:45:21.900Z,14.603882
2023-05-07T14:48:47.080Z,14.58374
2023-05-07T14:52:12.359Z,14.654236
2023-05-07T14:55:37.544Z,14.694519
2023-05-07T14:59:02.762Z,14.624023
2023-05-07T15:02:28.323Z,14.543457
2023-05-07T15:05:53.582Z,14.321899
2023-05-07T15:09:18.783Z,14.392395
2023-05-07T15:45:48.971Z,13.627014
2023-05-07T15:49:14.046Z,13.637085
2023-05-07T15:52:39.246Z,13.637085
2023-05-07T15:56:04.523Z,13.637085
2023-05-07T15:59:29.733Z,13.566589
2023-05-07T16:02:55.028Z,13.506165
2023-05-07T16:06:20.158Z,13.486023
2023-05-07T16:09:45.333Z,13.506165
2023-05-07T16:13:10.558Z,13.516235
2023-05-07T16:16:35.768Z,13.44574
2023-05-07T16:20:00.919Z,13.44574
2023-05-07T16:23:26.116Z,13.375244
2023-05-07T16:26:51.282Z,13.254395
2023-05-07T16:30:16.554Z,13.083191
2023-05-07T16:33:41.670Z,13.083191
2023-05-07T16:37:06.887Z,13.042908
2023-05-07T16:40:32.040Z,13.052979
2023-05-07T16:43:57.309Z,12.952271
2023-05-07T16:47:22.564Z,12.82135
2023-05-07T16:50:47.701Z,12.750854
2023-05-07T16:54:12.894Z,12.720642
2023-05-07T16:57:38.055Z,12.770996
2023-05-07T17:01:03.224Z,12.670288
2023-05-07T17:04:28.392Z,12.640076
2023-05-07T17:07:53.618Z,12.599792
2023-05-07T17:11:18.954Z,12.650146
2023-05-07T17:14:44.092Z,12.619934
2023-05-07T17:18:09.348Z,12.499084
2023-05-07T17:21:34.566Z,12.489014
2023-05-07T17:24:59.752Z,12.348022
2023-05-07T17:28:25.054Z,12.348022
2023-05-07T17:31:50.288Z,12.31781
2023-05-07T17:35:15.494Z,12.337952
2023-05-07T17:38:40.685Z,12.368164
2023-05-07T17:42:05.886Z,12.368164
2023-05-07T17:45:31.229Z,12.337952
2023-05-07T17:48:56.441Z,12.31781
2023-05-07T17:52:21.626Z,12.337952
2023-05-07T17:55:46.822Z,12.227173
2023-05-07T17:59:12.037Z,12.237244
2023-05-07T18:02:37.269Z,12.18689
2023-05-07T18:06:02.455Z,12.06604
2023-05-07T18:09:27.661Z,12.045898
2023-05-07T18:12:53.350Z,11.985474
2023-05-07T18:16:18.438Z,11.864624
2023-05-07T18:19:43.613Z,11.854553
2023-05-07T18:23:08.711Z,11.794128
2023-05-07T18:26:33.850Z,11.763916
2023-05-07T18:29:58.990Z,11.763916
2023-05-07T18:33:24.177Z,11.703491
2023-05-07T18:36:49.350Z,11.703491
2023-05-07T18:40:14.822Z,11.572571
2023-05-07T18:43:39.686Z,11.512146
2023-05-07T18:47:04.815Z,11.471863
2023-05-07T18:50:29.984Z,11.461792
2023-05-07T18:53:55.141Z,11.44165
2023-05-07T18:57:20.261Z,11.44165
2023-05-07T19:00:45.437Z,11.391296
2023-05-07T19:04:10.614Z,11.371155
2023-05-07T19:07:35.761Z,11.401367
2023-05-07T19:11:00.926Z,11.351013
2023-05-07T19:14:26.038Z,11.280518
2023-05-07T19:17:51.277Z,11.169739
2023-05-07T19:21:16.344Z,11.139526
2023-05-07T19:24:41.453Z,11.099243
2023-05-07T19:28:06.599Z,10.968323
2023-05-07T19:31:31.772Z,10.907898
2023-05-07T19:34:56.871Z,10.907898
2023-05-07T19:38:22.034Z,10.817261
2023-05-07T19:41:47.166Z,10.756836
2023-05-07T19:45:12.427Z,10.666199
2023-05-07T19:48:37.477Z,10.656128
2023-05-07T19:52:02.635Z,10.55542
2023-05-07T19:55:27.782Z,10.525208
2023-05-07T19:58:52.948Z,10.414429
2023-05-07T20:02:18.215Z,10.323792
2023-05-07T20:05:43.250Z,10.30365
2023-05-07T20:09:08.380Z,10.293579
2023-05-07T20:12:33.552Z,10.293579
2023-05-07T20:15:58.708Z,10.293579
2023-05-07T20:19:23.874Z,10.293579
2023-05-07T20:22:49.024Z,10.273438
2023-05-07T20:26:14.177Z,10.142517
2023-05-07T20:29:39.317Z,10.072021
2023-05-07T20:33:04.475Z,10.082092
2023-05-07T20:36:29.668Z,10.092163
2023-05-07T20:39:54.768Z,10.05188
2023-05-07T20:43:19.950Z,10.041809
2023-05-07T20:46:45.097Z,9.961243
2023-05-07T20:50:10.551Z,9.941101
2023-05-07T20:53:35.487Z,9.941101
2023-05-07T20:57:00.598Z,10.011597
2023-05-07T21:00:25.766Z,9.991455
2023-05-07T21:03:50.970Z,10.072021
2023-05-07T21:07:16.077Z,10.041809
2023-05-07T21:10:41.280Z,10.041809
2023-05-07T21:14:06.417Z,10.021667
2023-05-07T21:17:31.615Z,10.041809
2023-05-07T21:20:56.743Z,10.092163
2023-05-07T21:24:21.927Z,10.072021
2023-05-07T21:27:47.091Z,10.041809
2023-05-07T21:31:12.272Z,9.971313
2023-05-07T21:34:37.403Z,10.011597
2023-05-07T21:38:02.572Z,10.072021
2023-05-07T21:41:27.678Z,10.011597
2023-05-07T21:44:52.852Z,9.941101
2023-05-07T21:48:18.007Z,9.900818
2023-05-07T21:51:43.145Z,9.860535
2023-05-07T21:55:08.303Z,9.870605
2023-05-07T21:58:33.463Z,9.779968
2023-05-07T22:01:58.666Z,9.709473
2023-05-07T22:05:23.777Z,9.67926
2023-05-07T22:08:48.914Z,9.689331
2023-05-07T22:12:14.097Z,9.67926
2023-05-07T22:15:45.822Z,9.67926
2023-05-07T22:19:04.375Z,9.568481
2023-05-07T22:22:29.492Z,9.508057
2023-05-07T22:25:54.632Z,9.538269
2023-05-07T22:29:19.801Z,9.608765
2023-05-07T22:32:45.024Z,9.598694
2023-05-07T22:36:10.124Z,9.598694
2023-05-07T22:39:35.254Z,9.608765
2023-05-07T22:43:00.379Z,9.608765
2023-05-07T22:46:25.596Z,9.608765
2023-05-07T22:49:50.708Z,9.578552
2023-05-07T22:53:15.867Z,9.508057
2023-05-07T22:56:41.016Z,9.508057
2023-05-07T23:00:06.179Z,9.387207
2023-05-07T23:03:31.375Z,9.165649
2023-05-07T23:06:56.472Z,8.944092
2023-05-07T23:10:21.755Z,8.79303
2023-05-07T23:13:46.809Z,8.631897
2023-05-07T23:17:11.997Z,8.561401
2023-05-07T23:20:37.146Z,8.480835
2023-05-07T23:24:02.509Z,8.430481
2023-05-07T23:27:27.688Z,8.521118
2023-05-07T23:30:52.808Z,8.611755
2023-05-07T23:34:17.963Z,8.591614
2023-05-07T23:37:43.194Z,8.631897
2023-05-07T23:41:08.372Z,8.631897
2023-05-07T23:44:33.554Z,8.662109
2023-05-07T23:47:58.738Z,8.742676
2023-05-07T23:51:23.847Z,8.813171
2023-05-07T23:54:48.996Z,8.92395
2023-05-07T23:58:14.130Z,8.964233
